createdAt,value
2023-05-03T00:01:39.790Z,6.87
2023-05-03T00:04:06.321Z,6.84
2023-05-03T00:06:32.919Z,6.84
2023-05-03T00:08:59.426Z,6.73
2023-05-03T00:11:26.727Z,6.52
2023-05-03T00:13:53.194Z,6.44
2023-05-03T00:16:20.682Z,6.82
2023-05-03T00:18:49.140Z,6.79
2023-05-03T00:21:16.148Z,6.80
2023-05-03T00:23:42.726Z,6.87
2023-05-03T00:26:09.185Z,6.84
2023-05-03T00:28:35.694Z,6.76
2023-05-03T00:31:09.838Z,6.80
2023-05-03T00:33:37.360Z,6.85
2023-05-03T00:36:11.189Z,6.76
2023-05-03T00:38:38.694Z,6.53
2023-05-03T00:41:05.908Z,6.55
2023-05-03T00:43:32.915Z,6.54
2023-05-03T00:46:12.504Z,6.36
2023-05-03T00:48:42.242Z,6.57
2023-05-03T00:51:08.984Z,6.55
2023-05-03T00:53:35.979Z,6.35
2023-05-03T00:56:03.359Z,6.44
2023-05-03T00:58:30.911Z,6.41
2023-05-03T01:00:57.411Z,6.40
2023-05-03T01:03:24.068Z,6.23
2023-05-03T01:06:15.471Z,6.34
2023-05-03T01:08:47.981Z,6.22
2023-05-03T01:11:20.849Z,6.11
2023-05-03T01:13:55.425Z,6.18
2023-05-03T01:16:32.047Z,6.10
2023-05-03T01:19:02.816Z,6.12
2023-05-03T01:21:30.895Z,6.24
2023-05-03T01:24:11.817Z,6.25
2023-05-03T01:26:38.304Z,6.05
2023-05-03T01:29:05.324Z,5.86
2023-05-03T01:31:53.757Z,6.12
2023-05-03T01:34:45.623Z,6.08
2023-05-03T01:37:13.699Z,6.09
2023-05-03T01:39:49.176Z,6.17
2023-05-03T01:42:15.950Z,6.11
2023-05-03T01:44:42.785Z,5.86
2023-05-03T01:47:09.318Z,6.04
2023-05-03T01:49:35.824Z,5.98
2023-05-03T01:52:02.265Z,5.96
2023-05-03T01:54:28.755Z,5.78
2023-05-03T01:56:55.380Z,5.68
2023-05-03T01:59:21.836Z,5.95
2023-05-03T02:01:48.336Z,5.94
2023-05-03T02:04:14.819Z,5.80
2023-05-03T02:06:41.410Z,5.83
2023-05-03T02:09:08.594Z,5.95
2023-05-03T02:11:35.069Z,5.91
2023-05-03T02:14:01.567Z,5.88
2023-05-03T02:16:29.191Z,5.68
2023-05-03T02:18:59.352Z,5.67
2023-05-03T02:21:26.701Z,5.60
2023-05-03T02:23:54.255Z,5.74
2023-05-03T02:26:20.999Z,5.70
2023-05-03T02:28:47.454Z,5.76
2023-05-03T02:31:13.919Z,5.69
2023-05-03T02:33:40.681Z,5.75
2023-05-03T02:36:07.331Z,5.67
2023-05-03T02:38:33.837Z,5.57
2023-05-03T02:41:00.334Z,5.63
2023-05-03T02:43:26.822Z,5.47
2023-05-03T02:45:53.276Z,5.63
2023-05-03T02:48:19.725Z,5.44
2023-05-03T02:50:46.229Z,5.61
2023-05-03T02:53:12.749Z,5.39
2023-05-03T02:55:39.903Z,5.45
2023-05-03T02:58:06.364Z,5.23
2023-05-03T03:00:32.822Z,5.24
2023-05-03T03:02:59.521Z,5.19
2023-05-03T03:05:26.141Z,5.20
2023-05-03T03:07:52.615Z,5.52
2023-05-03T03:10:19.295Z,5.28
2023-05-03T03:12:46.084Z,5.39
2023-05-03T03:15:13.370Z,5.47
2023-05-03T03:17:39.981Z,5.37
2023-05-03T03:20:07.902Z,5.60
2023-05-03T03:22:34.388Z,5.31
2023-05-03T03:25:00.840Z,5.36
2023-05-03T03:27:27.281Z,5.33
2023-05-03T03:29:53.752Z,5.22
2023-05-03T03:32:20.319Z,5.17
2023-05-03T03:34:46.798Z,5.16
2023-05-03T03:37:13.280Z,5.20
2023-05-03T03:39:40.344Z,5.16
2023-05-03T03:42:07.483Z,5.25
2023-05-03T03:44:33.943Z,5.02
2023-05-03T03:47:00.615Z,5.18
2023-05-03T03:49:27.196Z,5.26
2023-05-03T03:51:53.649Z,5.30
2023-05-03T03:54:20.135Z,5.35
2023-05-03T03:56:46.583Z,5.36
2023-05-03T03:59:13.594Z,5.37
2023-05-03T04:01:40.246Z,5.35
2023-05-03T04:04:06.872Z,5.21
2023-05-03T04:06:33.516Z,5.27
2023-05-03T07:28:52.348Z,10.26
2023-05-03T07:39:23.344Z,12.72
2023-05-03T08:54:52.429Z,12.14
2023-05-03T09:03:40.124Z,11.44
2023-05-03T09:25:32.273Z,14.70
2023-05-03T09:36:29.518Z,14.61
2023-05-03T09:58:25.557Z,13.64
2023-05-03T10:00:52.829Z,13.88
2023-05-03T10:03:37.546Z,14.20
2023-05-03T10:06:07.647Z,13.86
2023-05-03T10:08:39.290Z,15.47
2023-05-03T10:11:08.613Z,16.48
2023-05-03T10:13:35.800Z,15.39
2023-05-03T10:16:06.661Z,15.24
2023-05-03T10:18:34.388Z,15.63
2023-05-03T10:21:16.638Z,15.24
2023-05-03T10:24:13.077Z,13.76
2023-05-03T10:26:45.313Z,12.96
2023-05-03T10:29:37.631Z,13.84
2023-05-03T10:32:05.408Z,13.52
2023-05-03T10:34:35.777Z,13.77
2023-05-03T10:37:05.579Z,12.39
2023-05-03T10:39:32.245Z,13.30
2023-05-03T10:41:59.859Z,12.89
2023-05-03T10:44:34.739Z,13.10
2023-05-03T10:47:14.564Z,13.72
2023-05-03T10:49:41.039Z,14.04
2023-05-03T10:52:35.856Z,14.29
2023-05-03T10:55:03.133Z,14.53
2023-05-03T10:57:32.135Z,14.48
2023-05-03T10:59:59.072Z,14.81
2023-05-03T11:02:34.284Z,14.41
2023-05-03T11:05:05.329Z,15.38
2023-05-03T11:07:32.188Z,14.07
2023-05-03T11:09:58.687Z,13.38
2023-05-03T11:12:25.154Z,13.86
2023-05-03T11:14:51.703Z,14.50
2023-05-03T11:17:18.195Z,16.20
2023-05-03T11:19:44.790Z,16.27
2023-05-03T11:22:12.523Z,15.34
2023-05-03T11:24:39.036Z,14.47
2023-05-03T11:27:08.548Z,14.20
2023-05-03T11:29:35.438Z,14.49
2023-05-03T11:32:01.935Z,14.11
2023-05-03T11:34:28.811Z,13.74
2023-05-03T11:36:55.278Z,13.86
2023-05-03T11:39:22.400Z,14.71
2023-05-03T11:42:05.039Z,14.68
2023-05-03T11:44:31.689Z,13.82
2023-05-03T11:46:58.633Z,13.34
2023-05-03T11:49:25.497Z,14.18
2023-05-03T11:51:54.608Z,13.83
2023-05-03T11:54:26.936Z,14.03
2023-05-03T11:56:59.075Z,14.00
2023-05-03T11:59:39.552Z,13.47
2023-05-03T12:02:07.804Z,14.35
2023-05-03T12:04:35.203Z,14.79
2023-05-03T12:07:03.361Z,14.50
2023-05-03T12:09:31.531Z,14.80
2023-05-03T12:11:59.253Z,15.89
2023-05-03T12:14:29.392Z,15.46
2023-05-03T12:16:56.868Z,14.98
2023-05-03T12:19:34.373Z,13.80
2023-05-03T12:22:17.785Z,13.45
2023-05-03T12:24:49.828Z,13.86
2023-05-03T12:27:19.003Z,14.11
2023-05-03T12:29:47.401Z,14.37
2023-05-03T12:32:14.381Z,14.67
2023-05-03T12:34:42.465Z,14.28
2023-05-03T12:37:11.748Z,14.73
2023-05-03T12:39:40.380Z,15.44
2023-05-03T12:42:09.218Z,14.81
2023-05-03T12:44:41.380Z,14.07
2023-05-03T12:47:10.046Z,14.85
2023-05-03T12:49:39.106Z,15.00
2023-05-03T12:52:35.450Z,13.89
2023-05-03T12:55:03.099Z,15.24
2023-05-03T12:57:31.182Z,15.06
2023-05-03T13:00:02.814Z,14.72
2023-05-03T13:05:01.433Z,14.85
2023-05-03T13:07:31.186Z,15.45
2023-05-03T13:12:30.772Z,14.34
2023-05-03T13:14:58.372Z,14.38
2023-05-03T13:17:25.293Z,13.74
2023-05-03T13:19:53.216Z,13.92
2023-05-03T13:22:19.700Z,14.47
2023-05-03T13:24:47.184Z,14.71
2023-05-03T13:27:14.607Z,14.45
2023-05-03T13:29:41.557Z,14.61
2023-05-03T13:32:08.701Z,14.09
2023-05-03T13:34:36.421Z,14.12
2023-05-03T13:37:04.618Z,14.68
2023-05-03T13:39:32.095Z,13.82
2023-05-03T13:41:58.661Z,13.75
2023-05-03T13:44:25.477Z,14.92
2023-05-03T13:46:52.541Z,14.32
2023-05-03T13:49:19.070Z,14.11
2023-05-03T13:51:45.742Z,14.27
2023-05-03T13:54:12.346Z,14.74
2023-05-03T13:56:38.834Z,14.63
2023-05-03T13:59:07.348Z,14.43
2023-05-03T14:01:33.907Z,14.57
2023-05-03T14:04:00.448Z,14.55
2023-05-03T14:06:27.670Z,14.59
2023-05-03T14:08:56.179Z,14.91
2023-05-03T14:11:22.671Z,14.99
2023-05-03T14:13:56.915Z,14.43
2023-05-03T14:16:36.337Z,14.97
2023-05-03T14:19:06.341Z,15.45
2023-05-03T14:21:32.888Z,15.08
2023-05-03T14:23:59.372Z,14.93
2023-05-03T14:26:26.743Z,16.04
2023-05-03T14:28:53.437Z,16.14
2023-05-03T14:31:20.140Z,15.93
2023-05-03T14:33:53.658Z,15.65
2023-05-03T14:36:20.124Z,16.87
2023-05-03T14:38:46.881Z,15.21
2023-05-03T14:41:13.370Z,14.99
2023-05-03T14:43:39.785Z,15.21
2023-05-03T14:46:06.462Z,14.82
2023-05-03T14:48:33.006Z,15.09
2023-05-03T14:50:59.624Z,15.26
2023-05-03T14:53:26.204Z,14.40
2023-05-03T14:55:54.968Z,13.79
2023-05-03T14:58:21.791Z,13.80
2023-05-03T15:00:48.395Z,13.94
2023-05-03T15:03:15.522Z,14.45
2023-05-03T15:05:50.427Z,13.56
2023-05-03T15:08:22.863Z,13.64
2023-05-03T15:10:49.331Z,13.63
2023-05-03T15:13:16.889Z,13.97
2023-05-03T15:15:43.869Z,13.77
2023-05-03T15:18:11.065Z,14.09
2023-05-03T15:20:38.058Z,14.46
2023-05-03T15:23:05.222Z,14.16
2023-05-03T15:25:32.157Z,13.95
2023-05-03T15:28:00.607Z,13.69
2023-05-03T15:30:29.381Z,13.60
2023-05-03T15:32:56.013Z,14.52
2023-05-03T15:35:22.553Z,13.76
2023-05-03T15:37:49.080Z,13.42
2023-05-03T15:40:16.509Z,13.64
2023-05-03T15:42:43.041Z,14.09
2023-05-03T15:45:10.818Z,13.98
2023-05-03T15:47:37.408Z,13.75
2023-05-03T15:50:06.445Z,13.33
2023-05-03T15:52:33.523Z,13.30
2023-05-03T15:54:59.983Z,13.35
2023-05-03T15:57:26.822Z,13.08
2023-05-03T15:59:54.135Z,13.32
2023-05-03T16:02:21.431Z,12.98
2023-05-03T16:04:50.311Z,12.66
2023-05-03T16:07:17.444Z,12.06
2023-05-03T16:09:43.984Z,13.00
2023-05-03T16:12:11.034Z,13.35
2023-05-03T16:14:37.589Z,13.31
2023-05-03T16:17:04.086Z,13.09
2023-05-03T16:19:30.990Z,13.17
2023-05-03T16:21:57.570Z,13.04
2023-05-03T16:24:24.278Z,12.67
2023-05-03T16:26:52.864Z,12.90
2023-05-03T16:29:19.807Z,12.68
2023-05-03T16:31:46.985Z,13.08
2023-05-03T16:34:14.051Z,13.70
2023-05-03T16:36:43.074Z,13.59
2023-05-03T16:39:13.457Z,13.65
2023-05-03T16:41:40.718Z,12.85
2023-05-03T16:44:08.517Z,13.02
2023-05-03T16:46:39.681Z,13.02
2023-05-03T16:49:06.402Z,13.02
2023-05-03T16:51:33.739Z,13.29
2023-05-03T16:54:02.283Z,13.24
2023-05-03T16:56:30.820Z,13.12
2023-05-03T16:58:57.287Z,12.86
2023-05-03T17:01:23.794Z,13.07
2023-05-03T17:03:50.397Z,12.93
2023-05-03T17:06:18.317Z,13.15
2023-05-03T17:08:45.219Z,12.96
2023-05-03T17:11:13.446Z,12.90
2023-05-03T17:13:40.141Z,12.94
2023-05-03T17:16:09.088Z,13.02
2023-05-03T17:18:36.930Z,12.84
2023-05-03T17:21:04.779Z,13.46
2023-05-03T17:23:36.034Z,13.44
2023-05-03T17:26:03.689Z,13.13
2023-05-03T17:28:30.705Z,13.26
2023-05-03T17:30:57.210Z,13.30
2023-05-03T17:33:25.268Z,12.60
2023-05-03T17:36:00.577Z,12.93
2023-05-03T17:38:27.105Z,12.84
2023-05-03T17:40:53.796Z,13.09
2023-05-03T17:43:20.372Z,13.01
2023-05-03T17:45:47.964Z,13.04
2023-05-03T17:48:14.802Z,13.23
2023-05-03T17:50:46.180Z,12.93
2023-05-03T17:53:12.839Z,12.76
2023-05-03T17:55:39.357Z,12.89
2023-05-03T17:58:06.490Z,12.90
2023-05-03T18:00:33.709Z,12.78
2023-05-03T18:03:00.936Z,12.63
2023-05-03T18:05:27.601Z,13.05
2023-05-03T18:07:54.241Z,12.89
2023-05-03T18:10:21.123Z,13.04
2023-05-03T18:12:47.858Z,12.96
2023-05-03T18:15:15.790Z,12.91
2023-05-03T18:17:42.799Z,13.04
2023-05-03T18:20:09.800Z,12.75
2023-05-03T18:22:37.533Z,12.53
2023-05-03T18:25:07.476Z,12.74
2023-05-03T18:27:36.741Z,12.89
2023-05-03T18:30:07.036Z,12.85
2023-05-03T18:32:34.448Z,12.93
2023-05-03T18:35:01.249Z,12.33
2023-05-03T18:37:27.868Z,12.91
2023-05-03T18:39:54.405Z,12.75
2023-05-03T18:42:21.378Z,12.90
2023-05-03T18:44:48.490Z,12.97
2023-05-03T18:47:18.850Z,13.04
2023-05-03T18:49:46.952Z,12.80
2023-05-03T18:52:13.392Z,12.49
2023-05-03T18:54:39.889Z,12.52
2023-05-03T18:57:06.336Z,12.53
2023-05-03T18:59:32.816Z,12.36
2023-05-03T19:01:59.316Z,12.34
2023-05-03T19:04:25.923Z,12.19
2023-05-03T19:06:52.441Z,12.02
2023-05-03T19:09:18.939Z,11.94
2023-05-03T19:11:45.515Z,11.76
2023-05-03T19:14:12.027Z,11.79
2023-05-03T19:16:38.746Z,11.49
2023-05-03T19:19:05.286Z,11.42
2023-05-03T19:21:32.297Z,11.48
2023-05-03T19:23:58.760Z,11.40
2023-05-03T19:26:25.246Z,11.41
2023-05-03T19:28:51.711Z,11.10
2023-05-03T19:31:18.272Z,10.95
2023-05-03T19:33:44.791Z,11.00
2023-05-03T19:36:15.029Z,10.89
2023-05-03T19:38:41.577Z,11.06
2023-05-03T19:41:12.058Z,10.74
2023-05-03T19:43:39.549Z,10.84
2023-05-03T19:46:06.662Z,10.79
2023-05-03T19:48:33.504Z,10.66
2023-05-03T19:51:00.711Z,10.65
2023-05-03T19:53:27.979Z,10.59
2023-05-03T19:55:58.673Z,10.52
2023-05-03T19:58:26.083Z,10.63
2023-05-03T20:00:53.541Z,10.56
2023-05-03T20:03:22.740Z,10.52
2023-05-03T20:05:49.448Z,10.45
2023-05-03T20:08:15.969Z,10.41
2023-05-03T20:10:44.694Z,10.27
2023-05-03T20:13:12.877Z,10.31
2023-05-03T20:15:39.461Z,10.11
2023-05-03T20:18:06.275Z,10.10
2023-05-03T20:20:32.977Z,10.17
2023-05-03T20:22:59.464Z,10.03
2023-05-03T20:25:26.086Z,10.05
2023-05-03T20:27:52.808Z,10.09
2023-05-03T20:30:19.495Z,9.80
2023-05-03T20:32:46.072Z,9.49
2023-05-03T20:35:12.675Z,9.89
2023-05-03T20:37:39.451Z,9.53
2023-05-03T20:40:07.310Z,9.79
2023-05-03T20:42:34.108Z,9.61
2023-05-03T20:45:00.657Z,9.59
2023-05-03T20:47:27.816Z,9.65
2023-05-03T20:49:54.282Z,9.63
2023-05-03T20:52:21.312Z,9.38
2023-05-03T20:54:48.109Z,9.39
2023-05-03T20:57:16.727Z,9.07
2023-05-03T20:59:46.162Z,8.97
2023-05-03T21:02:12.692Z,9.07
2023-05-03T21:04:39.334Z,9.37
2023-05-03T21:07:05.983Z,9.29
2023-05-03T21:09:33.397Z,9.36
2023-05-03T21:12:00.060Z,9.01
2023-05-03T21:14:27.824Z,8.91
2023-05-03T21:16:54.345Z,8.88
2023-05-03T21:19:21.081Z,8.67
2023-05-03T21:21:48.092Z,8.84
2023-05-03T21:24:14.562Z,8.94
2023-05-03T21:26:41.020Z,8.97
2023-05-03T21:29:07.494Z,9.00
2023-05-03T21:31:34.036Z,9.01
2023-05-03T21:34:00.488Z,8.99
2023-05-03T21:36:27.022Z,8.80
2023-05-03T21:38:53.557Z,8.36
2023-05-03T21:41:20.535Z,8.58
2023-05-03T21:43:47.037Z,8.11
2023-05-03T21:46:14.066Z,8.50
2023-05-03T21:48:41.056Z,8.29
2023-05-03T21:51:08.662Z,8.24
2023-05-03T21:53:35.645Z,8.08
2023-05-03T21:56:02.313Z,8.12
2023-05-03T21:58:29.696Z,8.20
2023-05-03T22:00:56.282Z,8.27
2023-05-03T22:03:22.996Z,8.37
2023-05-03T22:05:51.447Z,8.25
2023-05-03T22:08:18.605Z,8.12
2023-05-03T22:10:48.124Z,7.92
2023-05-03T22:13:14.681Z,7.88
2023-05-03T22:15:41.270Z,8.12
2023-05-03T22:18:07.833Z,8.10
2023-05-03T22:20:34.372Z,7.93
2023-05-03T22:23:00.816Z,7.92
2023-05-03T22:25:30.077Z,7.73
2023-05-03T22:27:58.004Z,7.67
2023-05-03T22:30:24.558Z,7.67
2023-05-03T22:32:51.061Z,7.49
2023-05-03T22:35:17.632Z,7.98
2023-05-03T22:37:44.115Z,7.84
2023-05-03T22:40:10.810Z,7.66
2023-05-03T22:42:37.663Z,7.73
2023-05-03T22:45:04.441Z,7.76
2023-05-03T22:47:30.894Z,7.94
2023-05-03T22:49:57.426Z,7.87
2023-05-03T22:52:23.943Z,7.83
2023-05-03T22:54:55.090Z,7.73
2023-05-03T22:57:21.587Z,7.79
2023-05-03T22:59:48.055Z,7.62
2023-05-03T23:02:14.902Z,7.49
2023-05-03T23:04:41.441Z,7.61
2023-05-03T23:07:07.941Z,7.51
2023-05-03T23:09:34.467Z,7.41
2023-05-03T23:12:01.010Z,7.60
2023-05-03T23:14:27.448Z,7.66
2023-05-03T23:16:54.084Z,7.68
2023-05-03T23:19:20.686Z,7.65
2023-05-03T23:21:47.153Z,7.56
2023-05-03T23:24:13.616Z,7.46
2023-05-03T23:26:40.327Z,7.29
2023-05-03T23:29:08.249Z,7.31
2023-05-03T23:31:35.935Z,7.41
2023-05-03T23:34:05.038Z,7.27
2023-05-03T23:36:32.974Z,7.38
2023-05-03T23:38:59.805Z,6.87
2023-05-03T23:41:26.469Z,7.10
2023-05-03T23:43:53.068Z,7.37
2023-05-03T23:46:23.379Z,7.34
2023-05-03T23:48:49.938Z,7.30
2023-05-03T23:51:16.421Z,7.13
2023-05-03T23:53:42.888Z,6.82
2023-05-03T23:56:09.355Z,6.98
2023-05-03T23:58:35.857Z,7.20
